Mars Hill, Mississippi
Current Conditions -  °F | °C
As of 7:53 AM on Monday 24 Nov 2014 (Local Time) from KMCB Reporting Station
Broken Clouds Broken Clouds  
Wind Chill: 57°   Ceiling: 1900
Heat Index: 57°   Visibility: 10mi
Dew Point: 51°   Wind: 9mph
Humidity: 81%   Direction: 310°NW
Pressure: 29.87"   Gusts: NA
Location:  31.2993°N, 90.4958°W
Report Text: KMCB 241353Z AUTO 31008KT 10SM BKN019 14/11 A2987 RMK AO2 SLP113 T01390106
Loading
Personal Weather Stations






























Interactive Weather Map New forecast layout! Learn more

10-Day Weather Forecast

Advertisements
Track Severe Weather on mobile